createdAt,value
2019-05-05T00:07:19.486Z,17.60
2019-05-05T00:10:01.172Z,17.70
2019-05-05T00:13:01.948Z,17.30
2019-05-05T00:15:56.276Z,17.40
2019-05-05T00:18:34.666Z,17.30
2019-05-05T00:21:12.133Z,17.10
2019-05-05T00:23:50.846Z,17.30
2019-05-05T00:26:28.282Z,17.00
2019-05-05T00:29:07.689Z,17.00
2019-05-05T00:31:45.516Z,17.00
2019-05-05T00:34:24.608Z,17.00
2019-05-05T00:37:04.620Z,17.00
2019-05-05T00:39:42.388Z,17.10
2019-05-05T00:42:20.132Z,17.10
2019-05-05T00:44:59.179Z,17.20
2019-05-05T00:47:44.927Z,17.20
2019-05-05T00:50:25.224Z,17.20
2019-05-05T00:53:05.233Z,17.90
2019-05-05T00:55:44.265Z,17.20
2019-05-05T00:58:24.825Z,17.40
2019-05-05T01:01:24.775Z,17.10
2019-05-05T01:04:05.189Z,18.00
2019-05-05T01:06:42.140Z,18.50
2019-05-05T01:14:36.481Z,18.30
2019-05-05T01:17:14.756Z,18.40
2019-05-05T01:20:01.128Z,18.60
2019-05-05T01:22:31.141Z,18.70
2019-05-05T01:25:08.937Z,19.00
2019-05-05T01:27:46.404Z,19.00
2019-05-05T01:33:07.648Z,19.10
2019-05-05T01:38:29.589Z,19.10
2019-05-05T01:41:25.267Z,19.10
2019-05-05T01:44:04.888Z,19.20
2019-05-05T01:46:44.508Z,18.90
2019-05-05T01:49:25.237Z,18.70
2019-05-05T01:52:04.505Z,19.00
2019-05-05T01:54:44.452Z,19.20
2019-05-05T01:57:22.393Z,18.90
2019-05-05T02:00:01.517Z,18.60
2019-05-05T02:02:40.631Z,18.70
2019-05-05T02:05:18.686Z,18.70
2019-05-05T02:07:56.418Z,18.90
2019-05-05T02:10:34.831Z,19.00
2019-05-05T02:13:12.490Z,19.10
2019-05-05T02:15:52.153Z,19.40
2019-05-05T02:18:29.916Z,19.30
2019-05-05T02:21:11.377Z,19.40
2019-05-05T02:23:50.079Z,19.50
2019-05-05T02:26:28.928Z,19.50
2019-05-05T02:29:20.418Z,19.60
2019-05-05T02:32:15.783Z,19.70
2019-05-05T02:34:57.326Z,19.60
2019-05-05T02:40:15.634Z,19.40
2019-05-05T02:42:56.188Z,19.50
2019-05-05T02:45:51.673Z,19.40
2019-05-05T02:48:35.094Z,19.40
2019-05-05T02:51:14.784Z,19.90
2019-05-05T02:53:54.066Z,20.00
2019-05-05T02:56:38.761Z,19.90
2019-05-05T02:59:20.273Z,19.70
2019-05-05T03:02:05.993Z,19.60
2019-05-05T03:04:45.635Z,19.40
2019-05-05T03:07:25.186Z,19.30
2019-05-05T03:10:06.107Z,19.40
2019-05-05T03:12:46.433Z,18.80
2019-05-05T03:15:30.625Z,18.30
2019-05-05T03:25:56.479Z,16.90
2019-05-05T03:28:50.966Z,16.90
2019-05-05T03:31:29.204Z,17.10
2019-05-05T03:34:06.835Z,17.00
2019-05-05T03:39:34.315Z,16.70
2019-05-05T03:45:23.469Z,16.90
2019-05-05T03:48:04.483Z,16.70
2019-05-05T03:53:18.578Z,17.20
2019-05-05T03:58:34.325Z,16.80
2019-05-05T04:01:37.741Z,16.70
2019-05-05T04:04:30.066Z,16.90
2019-05-05T04:07:09.625Z,17.30
2019-05-05T04:09:48.383Z,16.70
2019-05-05T04:12:25.943Z,17.00
2019-05-05T04:15:04.340Z,17.00
2019-05-05T04:18:06.231Z,17.30
2019-05-05T04:20:45.623Z,17.20
2019-05-05T04:23:24.536Z,18.10
2019-05-05T04:26:03.837Z,18.00
2019-05-05T04:31:15.809Z,18.80
2019-05-05T04:36:33.546Z,19.90
2019-05-05T04:39:11.493Z,20.00
2019-05-05T04:44:24.938Z,19.90
2019-05-05T04:47:05.869Z,19.50
2019-05-05T04:49:53.696Z,19.90
2019-05-05T04:52:34.170Z,18.80
2019-05-05T04:55:10.853Z,18.60
2019-05-05T04:57:48.246Z,18.60
2019-05-05T05:03:13.330Z,18.40
2019-05-05T05:06:11.072Z,18.40
2019-05-05T05:08:48.756Z,18.20
2019-05-05T05:11:26.858Z,18.40
2019-05-05T05:14:04.267Z,18.30
2019-05-05T05:16:43.784Z,18.50
2019-05-05T05:19:24.208Z,18.60
2019-05-05T05:22:02.369Z,18.90
2019-05-05T05:24:44.831Z,18.70
2019-05-05T05:27:24.279Z,18.20
2019-05-05T05:30:08.037Z,17.80
2019-05-05T05:32:46.693Z,17.70
2019-05-05T05:35:24.496Z,18.20
2019-05-05T05:38:04.669Z,18.10
2019-05-05T05:40:48.529Z,17.70
2019-05-05T05:43:33.761Z,17.80
2019-05-05T05:46:33.891Z,17.40
2019-05-05T05:49:19.240Z,18.00
2019-05-05T05:51:56.780Z,18.10
2019-05-05T05:54:34.326Z,18.10
2019-05-05T05:57:13.612Z,18.10
2019-05-05T05:59:51.223Z,18.00
2019-05-05T06:02:34.210Z,18.30
2019-05-05T06:05:11.788Z,18.00
2019-05-05T06:08:02.046Z,18.40
2019-05-05T06:10:39.540Z,18.00
2019-05-05T06:13:17.268Z,18.20
2019-05-05T06:15:54.900Z,19.20
2019-05-05T06:18:34.357Z,19.40
2019-05-05T06:21:11.232Z,20.00
2019-05-05T06:23:50.336Z,20.20
2019-05-05T06:26:29.504Z,20.10
2019-05-05T06:29:09.156Z,20.40
2019-05-05T06:31:48.606Z,20.30
2019-05-05T06:34:27.779Z,20.20
2019-05-05T06:37:07.073Z,19.90
2019-05-05T06:39:48.848Z,19.70
2019-05-05T06:42:43.518Z,19.40
2019-05-05T06:45:36.168Z,19.20
2019-05-05T06:48:13.634Z,18.80
2019-05-05T06:50:51.067Z,18.70
2019-05-05T06:58:42.230Z,18.20
2019-05-05T07:01:21.167Z,18.40
2019-05-05T07:06:51.761Z,17.60
2019-05-05T07:09:17.908Z,18.10
2019-05-05T07:12:28.611Z,18.30
2019-05-05T07:15:06.119Z,18.20
2019-05-05T07:17:45.221Z,18.10
2019-05-05T07:20:24.249Z,18.20
2019-05-05T07:23:05.315Z,18.00
2019-05-05T07:25:45.994Z,18.20
2019-05-05T07:28:23.519Z,17.90
2019-05-05T07:31:04.399Z,17.90
2019-05-05T07:33:44.210Z,17.90
2019-05-05T07:36:41.536Z,17.70
2019-05-05T07:39:21.056Z,17.70
2019-05-05T07:42:00.196Z,17.70
2019-05-05T07:44:39.539Z,17.70
2019-05-05T07:49:53.758Z,17.50
2019-05-05T07:52:34.243Z,17.20
2019-05-05T07:55:11.441Z,17.30
2019-05-05T07:57:48.977Z,17.00
2019-05-05T08:03:03.750Z,17.20
2019-05-05T08:05:41.416Z,17.70
2019-05-05T08:08:24.457Z,18.20
2019-05-05T08:11:01.655Z,17.30
2019-05-05T08:13:39.314Z,17.70
2019-05-05T08:16:27.944Z,17.40
2019-05-05T08:19:34.628Z,17.40
2019-05-05T08:22:14.148Z,17.40
2019-05-05T08:25:04.181Z,17.40
2019-05-05T08:28:04.318Z,17.40
2019-05-05T08:30:57.705Z,17.50
2019-05-05T08:33:35.670Z,17.40
2019-05-05T08:36:14.702Z,17.40
2019-05-05T08:38:51.972Z,17.50
2019-05-05T08:41:33.736Z,17.60
2019-05-05T08:44:10.805Z,17.70
2019-05-05T08:46:48.545Z,17.80
2019-05-05T08:49:29.644Z,17.70
2019-05-05T08:52:07.293Z,17.50
2019-05-05T08:54:45.122Z,17.40
2019-05-05T08:57:23.630Z,17.40
2019-05-05T09:00:04.819Z,17.40
2019-05-05T09:02:47.830Z,17.20
2019-05-05T09:05:29.747Z,17.20
2019-05-05T09:13:26.212Z,17.20
2019-05-05T09:16:06.490Z,17.30
2019-05-05T09:19:04.182Z,17.10
2019-05-05T09:21:44.928Z,17.00
2019-05-05T09:24:49.133Z,17.00
2019-05-05T09:27:44.138Z,16.90
2019-05-05T09:30:21.134Z,16.80
2019-05-05T09:32:58.983Z,16.70
2019-05-05T09:35:38.600Z,16.80
2019-05-05T09:38:16.256Z,16.80
2019-05-05T09:40:54.446Z,16.60
2019-05-05T09:43:34.345Z,16.60
2019-05-05T09:46:14.217Z,16.60
2019-05-05T09:48:54.162Z,16.60
2019-05-05T09:51:35.164Z,16.80
2019-05-05T09:54:17.468Z,16.60
2019-05-05T09:59:34.453Z,16.60
2019-05-05T10:02:12.939Z,16.60
2019-05-05T10:04:54.493Z,16.50
2019-05-05T10:07:34.571Z,16.60
2019-05-05T10:10:15.094Z,16.60
2019-05-05T10:12:55.006Z,16.60
2019-05-05T10:15:33.892Z,16.60
2019-05-05T10:18:14.129Z,16.60
2019-05-05T10:20:54.000Z,16.60
2019-05-05T10:23:34.212Z,16.70
2019-05-05T10:26:15.130Z,16.80
2019-05-05T10:36:58.427Z,16.30
2019-05-05T10:39:51.959Z,16.30
2019-05-05T10:45:24.473Z,16.30
2019-05-05T10:48:04.064Z,16.70
2019-05-05T10:50:41.480Z,16.10
2019-05-05T10:53:19.410Z,16.70
2019-05-05T10:55:57.044Z,16.20
2019-05-05T10:58:34.713Z,16.70
2019-05-05T11:01:14.367Z,16.40
2019-05-05T11:03:53.305Z,16.40
2019-05-05T11:06:30.942Z,16.50
2019-05-05T11:09:13.828Z,16.80
2019-05-05T11:11:50.425Z,16.50
2019-05-05T11:17:04.152Z,16.70
2019-05-05T11:19:44.202Z,16.40
2019-05-05T11:25:00.944Z,16.50
2019-05-05T11:27:36.598Z,16.40
2019-05-05T11:30:26.787Z,16.40
2019-05-05T11:33:18.219Z,16.60
2019-05-05T11:36:04.346Z,16.60
2019-05-05T11:38:41.658Z,16.60
2019-05-05T11:41:24.237Z,16.50
2019-05-05T11:44:03.933Z,16.60
2019-05-05T11:46:44.297Z,16.50
2019-05-05T11:49:24.283Z,16.40
2019-05-05T11:52:00.623Z,16.50
2019-05-05T11:54:39.665Z,16.40
2019-05-05T11:57:19.037Z,16.60
2019-05-05T11:59:56.782Z,16.30
2019-05-05T12:02:37.559Z,16.40
2019-05-05T12:05:17.007Z,16.40
2019-05-05T12:07:54.671Z,16.40
2019-05-05T12:10:49.704Z,16.50
2019-05-05T12:13:28.948Z,16.30
2019-05-05T12:16:13.681Z,16.30
2019-05-05T12:18:51.579Z,16.20
2019-05-05T12:21:29.048Z,16.40
2019-05-05T12:24:16.600Z,16.30
2019-05-05T12:27:13.989Z,16.20
2019-05-05T12:29:56.783Z,16.30
2019-05-05T12:32:34.788Z,16.30
2019-05-05T12:35:14.831Z,16.10
2019-05-05T12:37:53.726Z,16.30
2019-05-05T12:40:31.091Z,16.20
2019-05-05T12:43:08.683Z,16.20
2019-05-05T12:45:47.786Z,16.20
2019-05-05T12:48:30.426Z,16.30
2019-05-05T12:51:07.951Z,16.10
2019-05-05T12:53:45.679Z,16.20
2019-05-05T12:56:24.944Z,16.00
2019-05-05T12:59:03.800Z,16.10
2019-05-05T13:01:43.967Z,16.00
2019-05-05T13:04:20.811Z,16.00
2019-05-05T13:06:58.328Z,16.00
2019-05-05T13:09:40.101Z,15.90
2019-05-05T13:12:17.786Z,15.90
2019-05-05T13:14:55.555Z,15.80
2019-05-05T13:17:37.528Z,16.00
2019-05-05T13:23:23.558Z,15.70
2019-05-05T13:31:35.936Z,16.30
2019-05-05T13:34:15.001Z,15.60
2019-05-05T13:36:53.656Z,15.20
2019-05-05T13:39:31.241Z,15.50
2019-05-05T13:42:08.658Z,14.90
2019-05-05T13:45:09.694Z,16.10
2019-05-05T13:47:47.484Z,15.40
2019-05-05T13:50:35.888Z,15.30
2019-05-05T13:53:15.056Z,15.30
2019-05-05T13:55:58.372Z,15.90
2019-05-05T14:01:09.860Z,15.40
2019-05-05T14:03:47.072Z,16.20
2019-05-05T14:06:24.521Z,15.70
2019-05-05T14:09:02.019Z,15.70
2019-05-05T14:11:39.799Z,15.80
2019-05-05T14:14:19.083Z,15.50
2019-05-05T14:17:00.797Z,16.30
2019-05-05T14:19:40.605Z,15.30
2019-05-05T14:24:59.979Z,15.80
2019-05-05T14:27:37.848Z,15.50
2019-05-05T14:30:35.479Z,15.50
2019-05-05T14:33:17.376Z,15.30
2019-05-05T14:36:13.781Z,15.50
2019-05-05T14:38:56.590Z,15.40
2019-05-05T14:41:36.834Z,15.30
2019-05-05T14:44:14.631Z,15.30
2019-05-05T14:46:52.204Z,15.30
2019-05-05T14:49:29.874Z,15.40
2019-05-05T14:54:43.693Z,14.80
2019-05-05T14:59:56.629Z,15.20
2019-05-05T15:08:19.387Z,14.90
2019-05-05T15:11:14.392Z,15.10
2019-05-05T15:13:54.068Z,14.60
2019-05-05T15:16:31.502Z,14.90
2019-05-05T15:19:09.699Z,14.40
2019-05-05T15:21:48.846Z,14.50
2019-05-05T15:24:26.964Z,14.70
2019-05-05T15:27:06.085Z,14.30
2019-05-05T15:29:44.744Z,14.80
2019-05-05T15:32:23.790Z,14.60
2019-05-05T15:35:03.851Z,14.40
2019-05-05T15:37:40.667Z,14.50
2019-05-05T15:40:19.600Z,14.70
2019-05-05T15:42:57.310Z,14.60
2019-05-05T15:45:34.813Z,14.60
2019-05-05T15:48:14.003Z,14.90
2019-05-05T15:50:51.893Z,14.80
2019-05-05T15:53:30.564Z,15.00
2019-05-05T15:56:09.239Z,14.70
2019-05-05T15:58:48.419Z,15.20
2019-05-05T16:01:29.720Z,14.90
2019-05-05T16:04:11.271Z,14.50
2019-05-05T16:09:23.978Z,14.60
2019-05-05T16:12:03.639Z,14.70
2019-05-05T16:14:46.265Z,14.70
2019-05-05T16:17:46.930Z,14.20
2019-05-05T16:20:37.857Z,14.80
2019-05-05T16:23:18.937Z,14.30
2019-05-05T16:25:58.600Z,14.70
2019-05-05T16:28:38.870Z,14.50
2019-05-05T16:31:16.757Z,14.70
2019-05-05T16:33:54.382Z,14.30
2019-05-05T16:36:33.452Z,14.10
2019-05-05T16:39:13.806Z,14.80
2019-05-05T16:41:51.278Z,14.90
2019-05-05T16:44:28.742Z,14.20
2019-05-05T16:47:09.315Z,14.30
2019-05-05T16:49:46.831Z,14.70
2019-05-05T16:55:13.656Z,14.90
2019-05-05T16:57:52.467Z,14.90
2019-05-05T17:00:31.543Z,14.00
2019-05-05T17:03:10.632Z,14.20
2019-05-05T17:05:49.259Z,14.70
2019-05-05T17:08:27.850Z,14.70
2019-05-05T17:11:05.684Z,14.70
2019-05-05T17:14:04.106Z,14.20
2019-05-05T17:16:49.725Z,14.20
2019-05-05T17:19:31.033Z,14.20
2019-05-05T17:22:28.957Z,14.50
2019-05-05T17:25:08.395Z,14.20
2019-05-05T17:27:50.848Z,14.20
2019-05-05T17:30:28.733Z,14.10
2019-05-05T17:33:06.189Z,14.10
2019-05-05T17:35:45.135Z,14.10
2019-05-05T17:38:24.307Z,13.80
2019-05-05T17:41:17.374Z,14.00
2019-05-05T17:44:09.259Z,14.00
2019-05-05T17:46:53.822Z,14.00
2019-05-05T17:49:47.052Z,13.90
2019-05-05T17:52:53.619Z,14.00
2019-05-05T17:55:33.645Z,13.90
2019-05-05T17:58:13.655Z,14.10
2019-05-05T18:03:46.773Z,14.00
2019-05-05T18:06:47.408Z,14.00
2019-05-05T18:09:36.088Z,13.90
2019-05-05T18:12:27.741Z,13.90
2019-05-05T18:15:05.631Z,13.50
2019-05-05T18:17:43.327Z,13.90
2019-05-05T18:20:24.364Z,14.00
2019-05-05T18:23:01.820Z,13.90
2019-05-05T18:25:39.264Z,13.90
2019-05-05T18:28:20.150Z,13.90
2019-05-05T18:30:57.421Z,13.90
2019-05-05T18:33:34.854Z,13.80
2019-05-05T18:36:14.039Z,13.90
2019-05-05T18:38:51.029Z,13.90
2019-05-05T18:41:46.251Z,13.90
2019-05-05T18:44:33.505Z,13.90
2019-05-05T18:47:20.427Z,13.80
2019-05-05T18:49:59.759Z,13.40
2019-05-05T18:52:37.248Z,13.30
2019-05-05T18:55:14.859Z,13.50
2019-05-05T18:57:54.158Z,13.30
2019-05-05T19:00:52.254Z,13.60
2019-05-05T19:03:35.376Z,13.80
2019-05-05T19:06:29.723Z,13.60
2019-05-05T19:09:10.659Z,13.60
2019-05-05T19:11:49.941Z,13.70
2019-05-05T19:14:30.206Z,14.40
2019-05-05T19:17:10.754Z,13.50
2019-05-05T19:19:50.941Z,13.50
2019-05-05T19:25:18.484Z,13.30
2019-05-05T19:27:56.502Z,13.30
2019-05-05T19:30:37.919Z,13.60
2019-05-05T19:33:15.481Z,13.20
2019-05-05T19:35:57.332Z,13.20
2019-05-05T19:38:34.787Z,13.40
2019-05-05T19:41:14.260Z,13.30
2019-05-05T19:43:56.893Z,13.60
2019-05-05T19:46:54.820Z,13.60
2019-05-05T19:49:33.764Z,13.80
2019-05-05T19:52:13.606Z,13.40
2019-05-05T19:54:54.567Z,13.50
2019-05-05T20:00:05.871Z,13.70
2019-05-05T20:02:44.566Z,14.00
2019-05-05T20:05:28.668Z,13.40
2019-05-05T20:08:06.206Z,13.70
2019-05-05T20:10:44.254Z,14.50
2019-05-05T20:16:13.999Z,13.80
2019-05-05T20:24:03.605Z,14.20
2019-05-05T20:26:40.637Z,13.60
2019-05-05T20:31:54.976Z,13.60
2019-05-05T20:34:41.322Z,13.40
2019-05-05T20:39:56.401Z,13.60
2019-05-05T20:42:33.848Z,14.20
2019-05-05T20:47:48.650Z,14.00
2019-05-05T20:50:27.639Z,13.80
2019-05-05T20:53:05.116Z,14.20
2019-05-05T20:55:44.725Z,14.00
2019-05-05T20:58:23.947Z,14.00
2019-05-05T21:01:05.178Z,14.00
2019-05-05T21:03:42.916Z,14.00
2019-05-05T21:06:20.664Z,14.10
2019-05-05T21:09:00.038Z,14.10
2019-05-05T21:11:39.408Z,14.10
2019-05-05T21:14:30.234Z,14.10
2019-05-05T21:16:57.289Z,14.10
2019-05-05T21:19:34.823Z,14.40
2019-05-05T21:22:28.105Z,14.10
2019-05-05T21:25:06.939Z,14.20
2019-05-05T21:32:56.719Z,14.80
2019-05-05T21:35:34.833Z,14.20
2019-05-05T21:38:14.129Z,14.40
2019-05-05T21:40:51.021Z,14.00
2019-05-05T21:43:28.803Z,13.90
2019-05-05T21:46:06.226Z,14.50
2019-05-05T21:48:44.875Z,14.30
2019-05-05T21:51:34.968Z,14.40
2019-05-05T21:54:37.780Z,14.50
2019-05-05T21:57:44.707Z,14.40
2019-05-05T22:00:39.579Z,14.70
2019-05-05T22:05:53.912Z,14.30
2019-05-05T22:08:33.677Z,14.90
2019-05-05T22:11:11.498Z,14.90
2019-05-05T22:13:49.100Z,15.00
2019-05-05T22:16:26.619Z,14.90
2019-05-05T22:24:25.396Z,15.60
2019-05-05T22:27:04.668Z,15.30
2019-05-05T22:29:44.650Z,15.30
2019-05-05T22:32:22.228Z,15.30
2019-05-05T22:35:00.961Z,15.40
2019-05-05T22:37:38.664Z,15.50
2019-05-05T22:40:26.877Z,15.50
2019-05-05T22:43:04.716Z,15.70
2019-05-05T22:45:45.016Z,15.60
2019-05-05T22:48:23.979Z,15.70
2019-05-05T22:51:03.725Z,15.70
2019-05-05T22:53:40.574Z,15.80
2019-05-05T22:56:24.108Z,15.80
2019-05-05T22:59:04.082Z,16.10
2019-05-05T23:01:43.937Z,15.70
2019-05-05T23:04:50.883Z,16.20
2019-05-05T23:07:34.821Z,16.20
2019-05-05T23:10:13.992Z,16.40
2019-05-05T23:12:50.890Z,16.40
2019-05-05T23:15:28.524Z,16.90
2019-05-05T23:18:21.225Z,16.40
2019-05-05T23:21:06.802Z,16.50
2019-05-05T23:24:03.541Z,16.60
2019-05-05T23:26:43.628Z,16.90
2019-05-05T23:29:24.250Z,16.70
2019-05-05T23:32:06.302Z,15.70
2019-05-05T23:34:44.544Z,16.90
2019-05-05T23:37:22.042Z,17.20
2019-05-05T23:39:59.504Z,17.20
2019-05-05T23:42:37.020Z,17.20
2019-05-05T23:45:14.552Z,17.30
2019-05-05T23:47:54.457Z,17.20
2019-05-05T23:50:33.846Z,17.40
2019-05-05T23:55:50.188Z,17.50
2019-05-05T23:58:27.623Z,17.60
